Latest Weather Observations for Shark Bay Airport

IDW60801

Issued at 7:33 am WST Sunday 17 February 2019 (issued every 10 minutes, with the page automatically refreshed every 10 minutes)

About weather observations | Map of weather stations | Latest weather observations for WA | Other Formats
Station Details ID: 006105 Name: SHARK BAY AIRPORT Lat: -25.89 Lon: 113.58 Height: 33.8 m
Data from the previous 72 hours. | See also: Recent months at Shark Bay Airport
Date/Time
WST
Temp
°C
App
Temp
°C
Dew
Point
°C
Rel
Hum
%
Delta-T
°C
Wind Press
QNH
hPa
Press
MSL
hPa
Rain since
9am
mm
Dir  Spd
km/h
Gust
km/h
Spd
kts
Gust
kts
17/07:30am 22.8 20.7 19.0 79 2.4 S 28 39 15 21 1013.2 1013.0 0.0
17/07:00am 21.4 21.0 19.0 86 1.5 S 19 30 10 16 1013.2 1013.0 0.0
17/06:30am 20.3 19.9 18.1 87 1.4 S 17 22 9 12 1013.1 1012.9 0.0
17/06:00am 20.3 19.8 17.9 86 1.5 S 17 20 9 11 1013.1 1012.9 0.0
17/05:30am 20.6 19.8 18.0 85 1.6 S 19 30 10 16 1013.0 1012.8 0.0
17/05:00am 20.6 19.7 17.8 84 1.7 S 19 26 10 14 1013.0 1012.8 0.0
17/04:30am 20.8 19.4 18.0 84 1.7 S 22 35 12 19 1012.6 1012.4 0.0
17/04:00am 20.9 19.1 17.9 83 1.9 S 24 32 13 17 1012.5 1012.3 0.0
17/03:30am 21.0 18.4 17.8 82 2.0 S 28 41 15 22 1012.6 1012.4 0.0
17/03:00am 20.9 18.3 17.7 82 2.0 S 28 39 15 21 1012.7 1012.5 0.0
17/02:30am 21.0 19.3 18.2 84 1.7 S 24 33 13 18 1013.0 1012.8 0.0
17/02:00am 20.9 19.0 17.7 82 2.0 S 24 35 13 19 1013.3 1013.1 0.0
17/01:30am 21.2 20.4 18.4 84 1.8 S 20 28 11 15 1013.6 1013.4 0.0
17/01:00am 21.2 19.5 18.2 83 1.9 S 24 35 13 19 1013.6 1013.4 0.0
17/12:30am 21.1 19.4 18.1 83 1.9 S 24 35 13 19 1013.9 1013.7 0.0
17/12:00am 21.3 19.9 17.9 81 2.1 S 22 32 12 17 1014.2 1014.0 0.0
 
Date/Time
WST
Temp
°C
App
Temp
°C
Dew
Point
°C
Rel
Hum
%
Delta-T
°C
Wind Press
QNH
hPa
Press
MSL
hPa
Rain since
9am
mm
Dir  Spd
km/h
Gust
km/h
Spd
kts
Gust
kts
16/11:30pm 21.7 19.9 17.9 79 2.4 S 24 39 13 21 1014.5 1014.3 0.0
16/11:00pm 21.9 18.7 18.1 79 2.4 S 32 44 17 24 1014.8 1014.6 0.0
16/10:30pm 21.7 18.5 18.1 80 2.2 S 32 44 17 24 1014.8 1014.6 0.0
16/10:00pm 21.5 19.0 18.1 81 2.1 S 28 39 15 21 1014.8 1014.6 0.0
16/09:30pm 21.6 19.6 18.2 81 2.1 S 26 39 14 21 1014.8 1014.6 0.0
16/09:00pm 21.7 18.9 18.3 81 2.1 S 30 44 16 24 1014.5 1014.3 0.0
16/08:30pm 21.9 19.5 18.3 80 2.3 S 28 39 15 21 1014.4 1014.2 0.0
16/08:00pm 22.2 19.1 18.4 79 2.4 SSW 32 44 17 24 1014.1 1013.9 0.0
16/07:30pm 22.8 19.7 18.3 76 2.8 S 32 41 17 22 1013.9 1013.7 0.0
16/07:00pm 23.6 20.8 18.3 72 3.3 SSW 30 41 16 22 1013.7 1013.5 0.0
16/06:30pm 24.6 21.2 18.1 67 4.1 SSW 33 46 18 25 1013.4 1013.2 0.0
16/06:00pm 25.5 22.0 17.9 63 4.8 SSW 33 44 18 24 1013.3 1013.1 0.0
16/05:30pm 26.4 22.2 18.0 60 5.3 SSW 37 48 20 26 1013.2 1013.0 0.0
16/05:00pm 27.1 23.1 17.6 56 6.0 SSW 35 46 19 25 1013.3 1013.1 0.0
16/04:30pm 27.9 23.4 17.4 52 6.6 SSW 37 48 20 26 1013.4 1013.2 0.0
16/04:00pm 29.2 25.4 17.1 48 7.6 SSW 33 46 18 25 1013.5 1013.3 0.0
16/03:30pm 29.5 25.4 16.0 44 8.4 SSW 32 43 17 23 1013.6 1013.4 0.0
16/03:00pm 29.8 26.4 15.9 43 8.6 SSW 28 39 15 21 1013.8 1013.6 0.0
16/02:30pm 30.3 26.5 14.8 39 9.5 SSW 28 35 15 19 1013.9 1013.7 0.0
16/02:00pm 30.2 26.5 15.9 42 8.9 SSW 30 39 16 21 1014.3 1014.1 0.0
16/01:30pm 30.3 27.1 16.3 42 8.7 SSW 28 37 15 20 1014.5 1014.3 0.0
16/01:00pm 30.3 26.3 16.3 42 8.7 SW 32 43 17 23 1014.8 1014.6 0.0
16/12:30pm 29.4 26.7 16.6 46 8.0 SSW 26 37 14 20 1015.1 1014.9 0.0
16/12:00pm 29.2 27.2 16.4 46 8.0 S 22 33 12 18 1015.5 1015.3 0.0
16/11:30am 28.8 26.0 15.3 43 8.3 S 24 39 13 21 1016.1 1015.9 0.0
16/11:00am 28.0 24.8 15.3 46 7.7 S 26 39 14 21 1016.4 1016.2 0.0
16/10:30am 27.3 23.7 15.3 48 7.3 S 28 35 15 19 1016.7 1016.5 0.0
16/10:00am 27.1 23.7 16.7 53 6.5 S 30 43 16 23 1016.8 1016.6 0.0
16/09:30am 25.9 23.0 17.0 58 5.5 S 28 41 15 22 1017.0 1016.8 0.0
16/09:00am 24.5 21.1 16.7 61 4.8 SSE 30 44 16 24 1017.1 1016.9 0.0
16/08:30am 23.7 20.3 16.7 65 4.3 SSE 30 39 16 21 1017.2 1017.0 0.0
16/08:00am 23.3 21.0 17.7 71 3.5 SSE 26 41 14 22 1017.1 1016.9 0.0
16/07:30am 22.0 20.9 18.6 81 2.1 S 22 33 12 18 1016.9 1016.7 0.0
16/07:00am 19.5 20.4 17.6 89 1.2 SSE 9 13 5 7 1016.7 1016.5 0.0
16/06:30am 18.2 18.3 16.5 90 1.0 S 11 13 6 7 1016.4 1016.2 0.0
16/06:00am 17.9 17.8 15.9 88 1.2 SSE 11 13 6 7 1016.1 1015.9 0.0
16/05:30am 18.4 18.5 16.4 88 1.2 SSE 11 15 6 8 1016.0 1015.8 0.0
16/05:00am 18.7 18.8 16.5 87 1.3 SSE 11 13 6 7 1016.0 1015.8 0.0
16/04:30am 18.9 18.6 16.5 86 1.4 S 13 15 7 8 1016.0 1015.8 0.0
16/04:00am 19.2 19.0 16.6 85 1.6 SSE 13 20 7 11 1015.8 1015.6 0.0
16/03:30am 19.4 19.2 16.6 84 1.7 SSE 13 17 7 9 1015.7 1015.5 0.0
16/03:00am 19.7 19.0 16.5 82 1.9 SSE 15 20 8 11 1015.8 1015.6 0.0
16/02:30am 20.3 18.8 16.7 80 2.2 SSE 20 30 11 16 1016.0 1015.8 0.0
16/02:00am 20.7 19.6 17.3 81 2.1 S 19 26 10 14 1016.2 1016.0 0.0
16/01:30am 20.4 18.2 17.0 81 2.1 S 24 32 13 17 1016.4 1016.2 0.0
16/01:00am 20.5 18.4 17.1 81 2.1 S 24 35 13 19 1016.8 1016.6 0.0
16/12:30am 20.5 18.4 17.1 81 2.1 S 24 32 13 17 1017.1 1016.9 0.0
16/12:00am 20.4 18.6 17.0 81 2.1 S 22 32 12 17 1017.0 1016.8 0.0
 
Date/Time
WST
Temp
°C
App
Temp
°C
Dew
Point
°C
Rel
Hum
%
Delta-T
°C
Wind Press
QNH
hPa
Press
MSL
hPa
Rain since
9am
mm
Dir  Spd
km/h
Gust
km/h
Spd
kts
Gust
kts
15/11:30pm 20.7 18.7 17.3 81 2.1 S 24 32 13 17 1017.3 1017.1 0.0
15/11:00pm 20.9 18.9 17.5 81 2.1 S 24 35 13 19 1017.3 1017.1 0.0
15/10:30pm 21.2 18.9 17.6 80 2.2 S 26 39 14 21 1017.4 1017.2 0.0
15/10:00pm 21.5 19.7 17.9 80 2.2 S 24 32 13 17 1017.7 1017.5 0.0
15/09:30pm 21.5 19.6 17.7 79 2.4 S 24 37 13 20 1017.6 1017.4 0.0
15/09:00pm 21.6 19.6 17.4 77 2.6 S 24 33 13 18 1017.6 1017.4 0.0
15/08:30pm 21.9 19.2 17.5 76 2.7 S 28 39 15 21 1017.3 1017.1 0.0
15/08:00pm 22.3 19.2 17.4 74 3.0 S 30 41 16 22 1017.1 1016.9 0.0
15/07:30pm 22.8 20.5 17.5 72 3.3 S 26 39 14 21 1016.7 1016.5 0.0
15/07:00pm 23.7 21.7 17.4 68 3.9 S 24 35 13 19 1016.2 1016.0 0.0
15/06:30pm 24.5 20.9 17.2 63 4.5 S 32 44 17 24 1015.5 1015.3 0.0
15/06:00pm 25.9 22.7 17.3 59 5.4 SSW 30 41 16 22 1015.1 1014.9 0.0
15/05:30pm 27.1 23.0 16.4 52 6.6 SSW 33 46 18 25 1015.0 1014.8 0.0
15/05:00pm 28.1 23.9 16.1 48 7.4 SSW 33 46 18 25 1014.9 1014.7 0.0
15/04:30pm 28.6 24.4 15.8 45 7.9 SSW 32 44 17 24 1015.0 1014.8 0.0
15/04:00pm 29.3 25.4 15.4 42 8.5 SSW 30 41 16 22 1014.8 1014.6 0.0
15/03:30pm 29.8 25.5 15.5 42 8.8 SSW 32 39 17 21 1014.9 1014.7 0.0
15/03:00pm 30.6 26.9 15.1 39 9.5 SSW 28 37 15 20 1015.0 1014.8 0.0
15/02:30pm 30.3 26.3 14.0 37 9.8 SSW 28 33 15 18 1015.2 1015.0 0.0
15/02:00pm 30.9 26.8 12.8 33 10.7 SW 26 35 14 19 1015.3 1015.1 0.0
15/01:30pm 31.3 27.7 11.7 30 11.5 SW 22 32 12 17 1015.5 1015.3 0.0
15/01:00pm 30.5 27.0 13.3 35 10.3 SSW 24 32 13 17 1015.7 1015.5 0.0
15/12:30pm 29.3 25.5 15.8 44 8.3 SSW 30 37 16 20 1016.0 1015.8 0.0
15/12:00pm 28.6 25.8 17.2 50 7.2 SSW 28 39 15 21 1016.3 1016.1 0.0
15/11:30am 28.1 25.3 17.3 52 6.8 SSW 28 37 15 20 1016.5 1016.3 0.0
15/11:00am 27.5 24.0 17.4 54 6.3 SSW 32 37 17 20 1016.9 1016.7 0.0
15/10:30am 27.8 26.4 17.9 54 6.3 SSW 22 33 12 18 1017.1 1016.9 0.0
15/10:00am 27.1 25.3 17.0 54 6.3 S 22 32 12 17 1017.2 1017.0 0.0
15/09:30am 26.7 25.0 17.2 56 5.9 S 22 37 12 20 1017.2 1017.0 0.0
15/09:00am 25.7 24.3 17.9 62 4.9 S 22 35 12 19 1017.2 1017.0 0.0
15/08:30am 25.1 24.3 18.5 67 4.2 S 20 30 11 16 1017.2 1017.0 0.0
15/08:00am 22.8 22.0 19.2 80 2.3 S 22 30 12 16 1017.3 1017.1 0.0
15/07:30am 22.1 21.8 19.1 83 1.9 S 19 26 10 14 1017.0 1016.8 0.0
15/07:00am 21.0 21.0 18.9 88 1.3 S 17 20 9 11 1016.7 1016.5 0.0
15/06:30am 20.1 20.5 18.2 89 1.2 S 13 19 7 10 1016.2 1016.0 0.0
15/06:00am 20.1 20.1 18.2 89 1.2 S 15 20 8 11 1015.9 1015.7 0.0
15/05:30am 19.9 19.9 18.0 89 1.2 S 15 20 8 11 1015.6 1015.4 0.0
15/05:00am 20.1 19.8 18.2 89 1.2 S 17 20 9 11 1015.4 1015.2 0.0
15/04:30am 19.8 19.7 17.9 89 1.2 S 15 19 8 10 1015.1 1014.9 0.0
15/04:00am 19.7 20.3 17.7 88 1.2 S 11 15 6 8 1014.8 1014.6 0.0
15/03:30am 19.9 20.2 17.9 88 1.2 S 13 17 7 9 1014.6 1014.4 0.0
15/03:00am 20.5 21.0 18.3 87 1.4 S 13 20 7 11 1014.5 1014.3 0.0
15/02:30am 20.8 20.6 18.4 86 1.5 SSE 17 22 9 12 1014.5 1014.3 0.0
15/02:00am 21.4 21.8 19.0 86 1.5 SSE 15 20 8 11 1014.7 1014.5 0.0
15/01:30am 21.5 21.7 19.4 88 1.3 S 17 24 9 13 1014.8 1014.6 0.0
15/01:00am 21.1 21.1 19.0 88 1.3 S 17 24 9 13 1014.7 1014.5 0.0
15/12:30am 21.0 20.9 18.8 87 1.4 S 17 24 9 13 1014.6 1014.4 0.0
15/12:00am 21.1 21.8 18.9 87 1.4 S 13 19 7 10 1014.5 1014.3 0.0
 
Date/Time
WST
Temp
°C
App
Temp
°C
Dew
Point
°C
Rel
Hum
%
Delta-T
°C
Wind Press
QNH
hPa
Press
MSL
hPa
Rain since
9am
mm
Dir  Spd
km/h
Gust
km/h
Spd
kts
Gust
kts
14/11:30pm 21.4 21.0 18.8 85 1.6 S 19 24 10 13 1014.3 1014.1 0.0
14/11:00pm 21.6 21.2 18.8 84 1.8 S 19 28 10 15 1014.4 1014.2 0.0
14/10:30pm 21.8 20.4 18.8 83 1.9 S 24 32 13 17 1014.5 1014.3 0.0
14/10:00pm 21.9 21.2 18.7 82 2.0 S 20 30 11 16 1014.3 1014.1 0.0
14/09:30pm 22.2 21.2 18.8 81 2.1 SSW 22 32 12 17 1014.0 1013.8 0.0
14/09:00pm 22.4 21.7 18.6 79 2.4 S 20 30 11 16 1013.8 1013.6 0.0
14/08:30pm 22.7 21.6 18.7 78 2.5 S 22 30 12 16 1013.6 1013.4 0.0
14/08:00pm 23.1 21.6 18.6 76 2.8 SSW 24 35 13 19 1013.5 1013.3 0.0
14/07:30pm 23.6 21.9 18.0 71 3.5 S 24 33 13 18 1013.1 1012.9 0.0
14/07:00pm 24.6 22.2 18.3 68 4.0 SSW 28 39 15 21 1012.7 1012.5 0.0
14/06:30pm 25.6 22.6 17.8 62 4.9 SSW 30 39 16 21 1012.4 1012.2 0.0
14/06:00pm 26.6 22.6 17.7 58 5.6 SSW 35 43 19 23 1012.0 1011.8 0.0
14/05:30pm 27.8 24.4 17.6 53 6.4 SSW 32 43 17 23 1011.6 1011.4 0.0
14/05:00pm 28.7 24.7 17.6 51 7.0 SSW 35 44 19 24 1011.5 1011.3 0.0
14/04:30pm 29.2 25.9 18.3 51 7.0 SSW 33 44 18 24 1011.3 1011.1 0.0
14/04:00pm 29.6 25.7 17.8 49 7.5 SSW 35 46 19 25 1011.3 1011.1 0.0
14/03:30pm 30.0 26.8 18.1 49 7.6 SSW 32 41 17 22 1011.3 1011.1 0.0
14/03:00pm 30.4 27.9 18.8 50 7.5 SSW 30 43 16 23 1011.3 1011.1 0.0
14/02:30pm 32.4 30.5 19.3 46 8.6 SSW 28 37 15 20 1011.3 1011.1 0.0
14/02:00pm 32.5 28.2 15.5 36 10.6 SSW 32 43 17 23 1011.4 1011.2 0.0
14/01:30pm 32.3 28.3 15.3 35 10.5 SSW 30 43 16 23 1011.6 1011.4 0.0
14/01:00pm 32.0 28.0 15.1 36 10.4 SSW 30 41 16 22 1011.8 1011.6 0.0
14/12:30pm 32.4 28.1 14.5 33 11.0 SSW 30 41 16 22 1011.8 1011.6 0.0
14/12:00pm 31.4 26.1 13.2 33 10.9 SSW 33 44 18 24 1012.0 1011.8 0.0
14/11:30am 31.4 27.0 14.1 35 10.5 SSW 30 43 16 23 1012.3 1012.1 0.0
14/11:00am 30.3 26.1 13.6 36 10.0 SSW 28 37 15 20 1012.4 1012.2 0.0
14/10:30am 29.8 25.6 14.7 39 9.2 SSW 30 39 16 21 1012.6 1012.4 0.0
14/10:00am 29.0 25.9 15.5 44 8.3 S 26 39 14 21 1012.8 1012.6 0.0
14/09:30am 27.8 24.4 16.7 50 6.9 SSW 30 39 16 21 1012.6 1012.4 0.0
14/09:00am 26.5 23.2 17.0 56 5.9 S 30 41 16 22 1012.5 1012.3 0.0
14/08:30am 24.8 23.4 18.0 66 4.3 S 22 32 12 17 1012.5 1012.3 0.0
14/08:00am 24.0 21.8 18.6 72 3.4 S 28 37 15 20 1012.2 1012.0 0.0

Other Formats:

Comma delimited format used in spreadsheet applications
http://www.bom.gov.au/fwo/IDW60801/IDW60801.95402.axf

JavaScript Object Notation format (JSON) in row-major order
http://www.bom.gov.au/fwo/IDW60801/IDW60801.95402.json